createdAt,value
2018-09-01T00:00:33.943Z,99.90
2018-09-01T00:03:03.415Z,99.90
2018-09-01T00:05:32.368Z,99.90
2018-09-01T00:08:03.051Z,99.90
2018-09-01T00:10:33.347Z,99.90
2018-09-01T00:13:01.943Z,99.90
2018-09-01T00:15:31.070Z,99.90
2018-09-01T00:18:00.231Z,99.90
2018-09-01T00:20:32.713Z,99.90
2018-09-01T00:23:05.780Z,99.90
2018-09-01T00:25:36.297Z,99.90
2018-09-01T00:28:08.898Z,99.90
2018-09-01T00:30:36.976Z,99.90
2018-09-01T00:33:06.201Z,99.90
2018-09-01T00:35:35.250Z,99.90
2018-09-01T00:38:11.442Z,99.90
2018-09-01T00:40:41.435Z,99.90
2018-09-01T00:43:10.382Z,99.90
2018-09-01T00:45:42.879Z,99.90
2018-09-01T00:48:14.281Z,99.90
2018-09-01T00:50:43.581Z,99.90
2018-09-01T00:53:14.150Z,99.90
2018-09-01T00:55:44.722Z,99.90
2018-09-01T00:58:13.116Z,99.90
2018-09-01T01:00:41.494Z,99.90
2018-09-01T01:03:12.017Z,99.90
2018-09-01T01:05:40.279Z,99.90
2018-09-01T01:08:17.256Z,99.90
2018-09-01T01:10:45.311Z,99.90
2018-09-01T01:13:14.088Z,99.90
2018-09-01T01:15:43.258Z,99.90
2018-09-01T01:18:13.193Z,99.90
2018-09-01T01:20:45.477Z,99.90
2018-09-01T01:23:13.635Z,99.90
2018-09-01T01:25:43.782Z,99.90
2018-09-01T01:28:15.100Z,99.90
2018-09-01T01:30:52.829Z,99.90
2018-09-01T01:33:21.551Z,99.90
2018-09-01T01:35:52.581Z,99.90
2018-09-01T01:38:22.188Z,99.90
2018-09-01T01:40:51.478Z,99.90
2018-09-01T01:43:21.711Z,99.90
2018-09-01T01:45:51.062Z,99.90
2018-09-01T01:48:19.326Z,99.90
2018-09-01T01:50:47.993Z,99.90
2018-09-01T01:53:19.244Z,99.90
2018-09-01T01:55:48.950Z,99.90
2018-09-01T01:58:17.735Z,99.90
2018-09-01T02:00:46.413Z,99.90
2018-09-01T02:03:14.926Z,99.90
2018-09-01T02:05:43.644Z,99.90
2018-09-01T02:08:12.844Z,99.90
2018-09-01T02:10:41.090Z,99.90
2018-09-01T02:13:11.370Z,99.90
2018-09-01T02:15:42.962Z,99.90
2018-09-01T02:18:11.823Z,99.90
2018-09-01T02:20:41.072Z,99.90
2018-09-01T02:23:09.193Z,99.90
2018-09-01T02:25:38.747Z,99.90
2018-09-01T02:28:07.007Z,99.90
2018-09-01T02:30:37.062Z,99.90
2018-09-01T02:33:09.700Z,99.90
2018-09-01T02:35:38.998Z,99.90
2018-09-01T02:38:07.798Z,99.90
2018-09-01T02:40:37.638Z,99.90
2018-09-01T02:43:06.239Z,99.90
2018-09-01T02:45:34.906Z,99.90
2018-09-01T02:48:05.229Z,99.90
2018-09-01T02:50:39.643Z,99.90
2018-09-01T02:53:09.682Z,99.90
2018-09-01T02:55:38.716Z,99.90
2018-09-01T02:58:06.932Z,99.90
2018-09-01T03:00:37.481Z,99.90
2018-09-01T03:03:05.678Z,99.90
2018-09-01T03:05:35.231Z,99.90
2018-09-01T03:08:03.873Z,99.90
2018-09-01T03:10:32.928Z,99.90
2018-09-01T03:13:02.284Z,99.90
2018-09-01T03:15:32.151Z,99.90
2018-09-01T03:18:00.375Z,99.90
2018-09-01T03:20:28.601Z,99.90
2018-09-01T03:22:58.143Z,99.90
2018-09-01T03:25:29.339Z,99.90
2018-09-01T03:28:03.637Z,99.90
2018-09-01T03:30:31.712Z,99.90
2018-09-01T03:33:01.826Z,99.90
2018-09-01T03:35:30.934Z,99.90
2018-09-01T03:37:59.155Z,99.90
2018-09-01T03:40:27.840Z,99.90
2018-09-01T03:42:57.655Z,99.90
2018-09-01T03:45:29.769Z,99.90
2018-09-01T03:48:00.047Z,99.90
2018-09-01T03:50:28.631Z,99.90
2018-09-01T03:53:01.131Z,99.90
2018-09-01T03:55:31.580Z,99.90
2018-09-01T03:58:01.366Z,99.90
2018-09-01T04:00:31.298Z,99.90
2018-09-01T04:02:59.880Z,99.90
2018-09-01T04:05:29.950Z,99.90
2018-09-01T04:07:59.327Z,99.90
2018-09-01T04:10:28.155Z,99.90
2018-09-01T04:12:56.280Z,99.90
2018-09-01T04:15:24.614Z,99.90
2018-09-01T04:17:55.136Z,99.90
2018-09-01T04:20:24.554Z,99.90
2018-09-01T04:22:52.939Z,99.90
2018-09-01T04:25:25.819Z,99.90
2018-09-01T04:27:54.644Z,99.90
2018-09-01T04:30:28.362Z,99.90
2018-09-01T04:32:59.615Z,99.90
2018-09-01T04:35:27.925Z,99.90
2018-09-01T04:37:57.796Z,99.90
2018-09-01T04:40:26.939Z,99.90
2018-09-01T04:42:56.451Z,99.90
2018-09-01T04:45:24.532Z,99.90
2018-09-01T04:47:54.246Z,99.90
2018-09-01T04:50:22.343Z,99.90
2018-09-01T04:52:53.165Z,99.90
2018-09-01T04:55:21.332Z,99.90
2018-09-01T04:57:50.344Z,99.90
2018-09-01T05:00:22.230Z,99.90
2018-09-01T05:02:55.041Z,99.90
2018-09-01T05:05:23.234Z,99.90
2018-09-01T05:07:51.429Z,99.90
2018-09-01T05:10:24.668Z,99.90
2018-09-01T05:12:53.396Z,99.90
2018-09-01T05:15:21.784Z,99.90
2018-09-01T05:17:52.836Z,99.90
2018-09-01T05:20:20.873Z,99.90
2018-09-01T05:22:50.202Z,99.90
2018-09-01T05:25:21.039Z,99.90
2018-09-01T05:27:50.696Z,99.90
2018-09-01T05:30:20.269Z,99.90
2018-09-01T05:32:49.356Z,99.90
2018-09-01T05:35:20.303Z,99.90
2018-09-01T05:37:49.508Z,99.90
2018-09-01T05:40:17.562Z,99.90
2018-09-01T05:42:45.648Z,99.90
2018-09-01T05:45:15.975Z,99.90
2018-09-01T05:47:45.605Z,99.90
2018-09-01T05:50:16.243Z,99.90
2018-09-01T05:52:45.729Z,99.90
2018-09-01T05:55:17.285Z,99.90
2018-09-01T05:58:10.068Z,99.90
2018-09-01T06:00:42.826Z,99.90
2018-09-01T06:03:11.763Z,99.90
2018-09-01T06:06:14.549Z,99.90
2018-09-01T06:08:43.674Z,99.90
2018-09-01T06:17:50.949Z,99.90
2018-09-01T06:20:19.648Z,99.90
2018-09-01T06:22:49.876Z,99.90
2018-09-01T06:25:18.575Z,99.90
2018-09-01T06:27:49.395Z,99.90
2018-09-01T06:30:25.553Z,99.90
2018-09-01T06:32:54.631Z,99.90
2018-09-01T06:35:26.407Z,99.90
2018-09-01T06:39:02.761Z,99.90
2018-09-01T06:41:32.086Z,99.90
2018-09-01T06:46:38.513Z,99.90
2018-09-01T06:49:11.245Z,99.90
2018-09-01T06:51:41.519Z,99.90
2018-09-01T06:54:13.628Z,99.90
2018-09-01T06:57:33.220Z,99.90
2018-09-01T07:00:03.457Z,99.90
2018-09-01T07:02:38.379Z,99.90
2018-09-01T07:05:23.565Z,99.90
2018-09-01T07:07:54.004Z,99.90
2018-09-01T07:10:23.900Z,99.90
2018-09-01T07:12:54.828Z,99.90
2018-09-01T07:15:26.073Z,99.90
2018-09-01T07:17:54.780Z,99.90
2018-09-01T07:24:06.743Z,99.90
2018-09-01T07:26:35.772Z,99.90
2018-09-01T07:29:08.142Z,99.90
2018-09-01T07:31:39.762Z,99.90
2018-09-01T07:34:13.441Z,99.90
2018-09-01T07:36:42.652Z,99.90
2018-09-01T07:39:12.432Z,99.90
2018-09-01T07:41:42.667Z,99.90
2018-09-01T07:44:11.695Z,99.90
2018-09-01T07:46:43.325Z,99.90
2018-09-01T07:49:15.409Z,99.90
2018-09-01T07:52:11.825Z,99.90
2018-09-01T07:55:15.563Z,99.90
2018-09-01T07:57:58.772Z,99.90
2018-09-01T08:00:40.013Z,99.00
2018-09-01T08:03:17.090Z,98.60
2018-09-01T08:05:56.542Z,99.30
2018-09-01T08:08:26.662Z,97.80
2018-09-01T08:10:55.983Z,97.50
2018-09-01T08:13:33.071Z,98.20
2018-09-01T08:16:11.463Z,98.50
2018-09-01T08:18:39.662Z,96.90
2018-09-01T08:21:10.557Z,97.60
2018-09-01T08:23:40.236Z,97.40
2018-09-01T08:26:10.333Z,97.80
2018-09-01T08:29:11.435Z,98.00
2018-09-01T08:31:59.501Z,97.60
2018-09-01T08:34:28.433Z,95.30
2018-09-01T08:37:00.579Z,94.50
2018-09-01T08:39:30.946Z,92.90
2018-09-01T08:42:01.732Z,93.60
2018-09-01T08:44:31.516Z,93.60
2018-09-01T08:47:01.554Z,93.90
2018-09-01T08:49:29.964Z,93.50
2018-09-01T08:51:59.543Z,93.00
2018-09-01T08:54:51.136Z,92.50
2018-09-01T08:57:20.665Z,90.90
2018-09-01T08:59:50.754Z,90.30
2018-09-01T09:02:55.962Z,92.40
2018-09-01T09:05:37.821Z,91.60
2018-09-01T09:08:07.401Z,90.80
2018-09-01T09:10:36.237Z,90.40
2018-09-01T09:13:36.681Z,91.00
2018-09-01T09:16:07.704Z,91.50
2018-09-01T09:18:38.867Z,92.70
2018-09-01T09:21:07.623Z,94.50
2018-09-01T09:23:45.551Z,94.60
2018-09-01T09:26:15.686Z,94.20
2018-09-01T09:29:15.035Z,94.00
2018-09-01T09:31:45.770Z,95.40
2018-09-01T09:34:15.368Z,95.60
2018-09-01T09:36:50.384Z,95.80
2018-09-01T09:39:20.052Z,95.70
2018-09-01T09:41:49.575Z,96.90
2018-09-01T09:44:26.084Z,96.70
2018-09-01T09:47:22.517Z,97.00
2018-09-01T09:49:52.652Z,97.00
2018-09-01T09:52:21.073Z,97.30
2018-09-01T09:55:21.141Z,96.70
2018-09-01T09:58:13.379Z,96.70
2018-09-01T10:01:00.393Z,96.30
2018-09-01T10:04:13.802Z,96.10
2018-09-01T10:07:12.244Z,96.30
2018-09-01T10:09:43.007Z,95.40
2018-09-01T10:12:14.516Z,95.60
2018-09-01T10:14:44.841Z,95.70
2018-09-01T10:17:15.609Z,95.60
2018-09-01T10:19:49.947Z,95.40
2018-09-01T10:25:50.488Z,93.80
2018-09-01T10:28:57.566Z,94.70
2018-09-01T10:31:31.024Z,95.00
2018-09-01T10:34:06.962Z,95.00
2018-09-01T10:36:40.788Z,95.30
2018-09-01T10:39:30.262Z,95.60
2018-09-01T10:42:02.177Z,95.90
2018-09-01T10:44:37.510Z,94.60
2018-09-01T10:47:07.633Z,96.00
2018-09-01T10:49:47.468Z,95.80
2018-09-01T10:52:30.136Z,95.50
2018-09-01T10:55:14.733Z,94.60
2018-09-01T11:01:18.318Z,95.50
2018-09-01T11:03:47.726Z,95.10
2018-09-01T11:06:19.412Z,95.40
2018-09-01T11:08:48.903Z,95.30
2018-09-01T11:11:37.917Z,95.10
2018-09-01T11:14:16.354Z,94.40
2018-09-01T11:16:45.372Z,94.20
2018-09-01T11:19:24.933Z,94.10
2018-09-01T11:21:55.291Z,94.10
2018-09-01T11:24:36.285Z,94.40
2018-09-01T11:29:48.359Z,93.80
2018-09-01T11:32:18.241Z,94.00
2018-09-01T11:35:18.041Z,94.30
2018-09-01T11:38:02.491Z,94.00
2018-09-01T11:40:34.359Z,93.50
2018-09-01T11:43:05.562Z,93.50
2018-09-01T11:45:34.894Z,93.20
2018-09-01T11:48:35.481Z,92.70
2018-09-01T11:51:28.343Z,92.80
2018-09-01T11:54:16.044Z,92.30
2018-09-01T11:57:21.675Z,91.90
2018-09-01T12:00:17.555Z,92.00
2018-09-01T12:02:55.376Z,91.00
2018-09-01T12:05:32.092Z,91.60
2018-09-01T12:08:37.340Z,91.40
2018-09-01T12:11:17.971Z,91.10
2018-09-01T12:13:47.103Z,89.80
2018-09-01T12:16:16.828Z,88.70
2018-09-01T12:18:51.064Z,89.70
2018-09-01T12:21:20.306Z,90.60
2018-09-01T12:23:49.590Z,90.70
2018-09-01T12:26:26.880Z,90.20
2018-09-01T12:29:04.288Z,89.70
2018-09-01T12:31:35.946Z,90.10
2018-09-01T12:34:10.409Z,89.70
2018-09-01T12:36:40.275Z,90.00
2018-09-01T12:39:10.045Z,89.40
2018-09-01T12:41:39.885Z,86.40
2018-09-01T12:44:13.883Z,86.60
2018-09-01T12:46:45.303Z,87.20
2018-09-01T12:49:14.064Z,85.90
2018-09-01T12:51:43.895Z,86.50
2018-09-01T12:54:18.229Z,86.00
2018-09-01T12:57:13.798Z,85.00
2018-09-01T12:59:58.527Z,84.70
2018-09-01T13:02:28.673Z,83.10
2018-09-01T13:04:56.750Z,83.00
2018-09-01T13:07:28.286Z,83.20
2018-09-01T13:10:20.636Z,84.00
2018-09-01T13:13:01.892Z,83.20
2018-09-01T13:15:31.332Z,83.90
2018-09-01T13:17:59.904Z,82.30
2018-09-01T13:20:47.976Z,82.10
2018-09-01T13:23:17.397Z,81.10
2018-09-01T13:25:45.469Z,82.80
2018-09-01T13:28:13.559Z,82.20
2018-09-01T13:30:44.394Z,81.90
2018-09-01T13:33:15.385Z,81.90
2018-09-01T13:36:03.478Z,81.60
2018-09-01T13:38:48.208Z,81.50
2018-09-01T13:41:30.070Z,79.70
2018-09-01T13:44:06.906Z,80.40
2018-09-01T13:46:50.058Z,80.80
2018-09-01T13:49:41.377Z,82.00
2018-09-01T13:52:13.067Z,81.60
2018-09-01T13:54:42.837Z,80.70
2018-09-01T13:57:21.603Z,80.50
2018-09-01T14:00:04.568Z,80.90
2018-09-01T14:02:54.608Z,81.10
2018-09-01T14:05:30.648Z,80.80
2018-09-01T14:07:58.950Z,80.20
2018-09-01T14:10:31.764Z,80.20
2018-09-01T14:13:00.950Z,79.40
2018-09-01T14:15:33.836Z,79.30
2018-09-01T14:21:00.339Z,80.00
2018-09-01T14:24:32.075Z,78.00
2018-09-01T14:27:28.603Z,78.60
2018-09-01T14:30:24.992Z,78.30
2018-09-01T14:32:55.524Z,78.60
2018-09-01T14:35:33.210Z,78.20
2018-09-01T14:38:03.762Z,78.20
2018-09-01T14:40:57.126Z,78.60
2018-09-01T14:43:26.758Z,78.30
2018-09-01T14:46:08.522Z,78.30
2018-09-01T14:48:46.629Z,77.50
2018-09-01T14:51:20.327Z,78.10
2018-09-01T14:53:49.664Z,78.30
2018-09-01T14:56:18.085Z,77.90
2018-09-01T14:58:46.308Z,76.80
2018-09-01T15:01:16.847Z,78.00
2018-09-01T15:03:45.602Z,77.70
2018-09-01T15:06:16.599Z,77.40
2018-09-01T15:08:48.588Z,78.40
2018-09-01T15:11:18.807Z,77.60
2018-09-01T15:14:00.836Z,77.10
2018-09-01T15:16:31.222Z,77.30
2018-09-01T15:19:32.164Z,76.30
2018-09-01T15:22:20.130Z,76.80
2018-09-01T15:24:52.334Z,76.10
2018-09-01T15:27:20.724Z,76.00
2018-09-01T15:29:53.931Z,76.30
2018-09-01T15:32:30.772Z,75.80
2018-09-01T15:35:02.715Z,75.60
2018-09-01T15:37:36.956Z,75.90
2018-09-01T15:40:14.431Z,75.40
2018-09-01T15:42:52.225Z,76.40
2018-09-01T15:45:27.334Z,75.10
2018-09-01T15:47:58.813Z,75.70
2018-09-01T15:50:40.308Z,75.50
2018-09-01T15:53:11.740Z,75.90
2018-09-01T15:55:41.821Z,75.20
2018-09-01T15:58:11.515Z,74.50
2018-09-01T16:00:45.774Z,75.90
2018-09-01T16:03:25.735Z,76.20
2018-09-01T16:05:53.915Z,76.20
2018-09-01T16:08:42.427Z,76.10
2018-09-01T16:11:16.939Z,76.40
2018-09-01T16:13:49.354Z,76.50
2018-09-01T16:16:24.227Z,77.20
2018-09-01T16:19:04.447Z,77.50
2018-09-01T16:21:50.471Z,76.60
2018-09-01T16:24:23.029Z,76.70
2018-09-01T16:26:53.334Z,76.80
2018-09-01T16:29:26.629Z,76.70
2018-09-01T16:31:57.281Z,77.10
2018-09-01T16:34:31.216Z,76.80
2018-09-01T16:37:03.567Z,76.90
2018-09-01T16:39:40.595Z,75.90
2018-09-01T16:42:11.267Z,76.60
2018-09-01T16:47:59.773Z,75.60
2018-09-01T16:50:32.194Z,75.90
2018-09-01T16:53:37.499Z,75.90
2018-09-01T16:56:37.471Z,76.60
2018-09-01T16:59:13.553Z,77.30
2018-09-01T17:01:46.457Z,77.80
2018-09-01T17:04:47.508Z,78.10
2018-09-01T17:07:40.882Z,78.20
2018-09-01T17:10:33.231Z,78.80
2018-09-01T17:13:15.433Z,79.30
2018-09-01T17:16:00.268Z,79.70
2018-09-01T17:18:50.067Z,79.80
2018-09-01T17:21:20.262Z,79.90
2018-09-01T17:23:49.321Z,80.30
2018-09-01T17:30:06.584Z,80.70
2018-09-01T17:32:37.860Z,81.10
2018-09-01T17:35:07.858Z,81.60
2018-09-01T17:37:40.680Z,81.90
2018-09-01T17:40:15.525Z,81.90
2018-09-01T17:43:04.149Z,82.30
2018-09-01T17:46:23.117Z,82.80
2018-09-01T17:48:53.240Z,83.60
2018-09-01T17:51:35.198Z,84.30
2018-09-01T17:54:04.783Z,84.70
2018-09-01T17:56:35.793Z,85.20
2018-09-01T17:59:06.151Z,85.50
2018-09-01T18:01:37.492Z,86.10
2018-09-01T18:04:23.834Z,86.50
2018-09-01T18:06:55.215Z,86.90
2018-09-01T18:09:24.967Z,87.10
2018-09-01T18:12:03.647Z,87.30
2018-09-01T18:14:58.190Z,87.60
2018-09-01T18:17:35.619Z,88.00
2018-09-01T18:20:09.413Z,88.60
2018-09-01T18:22:39.187Z,89.10
2018-09-01T18:25:14.432Z,89.70
2018-09-01T18:27:52.962Z,90.40
2018-09-01T18:30:24.486Z,90.30
2018-09-01T18:33:21.346Z,90.50
2018-09-01T18:35:53.504Z,90.80
2018-09-01T18:41:47.498Z,91.10
2018-09-01T18:44:21.939Z,91.30
2018-09-01T18:46:53.043Z,91.60
2018-09-01T18:49:24.432Z,91.80
2018-09-01T18:51:54.942Z,92.00
2018-09-01T18:54:25.536Z,92.20
2018-09-01T18:56:58.419Z,92.30
2018-09-01T18:59:31.159Z,92.50
2018-09-01T19:02:21.209Z,92.70
2018-09-01T19:04:55.642Z,92.90
2018-09-01T19:07:31.721Z,93.30
2018-09-01T19:10:35.097Z,93.30
2018-09-01T19:13:12.785Z,93.50
2018-09-01T19:15:45.116Z,93.40
2018-09-01T19:18:15.604Z,93.80
2018-09-01T19:21:08.823Z,93.60
2018-09-01T19:23:37.457Z,93.80
2018-09-01T19:26:15.103Z,94.00
2018-09-01T19:28:49.543Z,94.10
2018-09-01T19:31:21.900Z,94.20
2018-09-01T19:33:56.238Z,94.30
2018-09-01T19:39:38.390Z,94.70
2018-09-01T19:42:07.349Z,94.80
2018-09-01T19:44:38.015Z,94.80
2018-09-01T19:47:16.948Z,94.80
2018-09-01T19:49:46.186Z,95.10
2018-09-01T19:52:20.546Z,95.30
2018-09-01T19:54:53.872Z,95.40
2018-09-01T19:58:08.620Z,95.50
2018-09-01T20:00:41.007Z,95.60
2018-09-01T20:03:21.573Z,95.50
2018-09-01T20:09:24.175Z,95.70
2018-09-01T20:11:57.295Z,95.90
2018-09-01T20:14:40.541Z,96.00
2018-09-01T20:17:26.758Z,95.90
2018-09-01T20:23:10.251Z,96.30
2018-09-01T20:26:20.526Z,96.30
2018-09-01T20:29:02.715Z,96.40
2018-09-01T20:31:50.795Z,96.50
2018-09-01T20:34:32.163Z,96.70
2018-09-01T20:40:42.815Z,96.80
2018-09-01T20:46:33.675Z,99.70
2018-09-01T20:49:39.590Z,99.90
2018-09-01T20:55:14.604Z,99.90
2018-09-01T20:57:43.465Z,99.90
2018-09-01T21:00:19.499Z,99.90
2018-09-01T21:02:49.094Z,99.90
2018-09-01T21:05:25.007Z,99.90
2018-09-01T21:08:35.742Z,99.90
2018-09-01T21:11:11.607Z,99.90
2018-09-01T21:13:52.325Z,99.90
2018-09-01T21:16:23.567Z,99.90
2018-09-01T21:18:55.533Z,99.90
2018-09-01T21:21:37.555Z,99.90
2018-09-01T21:24:08.546Z,99.90
2018-09-01T21:26:48.142Z,99.90
2018-09-01T21:31:56.729Z,99.90
2018-09-01T21:34:28.114Z,99.90
2018-09-01T21:36:59.658Z,99.90
2018-09-01T21:39:31.002Z,99.90
2018-09-01T21:42:02.642Z,99.90
2018-09-01T21:44:33.439Z,99.90
2018-09-01T21:47:06.779Z,99.90
2018-09-01T21:49:37.709Z,99.90
2018-09-01T21:52:06.738Z,99.90
2018-09-01T21:55:09.213Z,99.90
2018-09-01T21:57:59.100Z,99.90
2018-09-01T22:00:27.811Z,99.90
2018-09-01T22:02:55.923Z,99.90
2018-09-01T22:05:28.583Z,99.90
2018-09-01T22:08:00.853Z,99.90
2018-09-01T22:10:30.895Z,99.90
2018-09-01T22:13:00.915Z,99.90
2018-09-01T22:15:46.215Z,99.90
2018-09-01T22:18:27.468Z,99.90
2018-09-01T22:20:59.212Z,99.90
2018-09-01T22:23:29.131Z,99.90
2018-09-01T22:26:00.345Z,99.90
2018-09-01T22:28:32.360Z,99.90
2018-09-01T22:31:05.114Z,99.90
2018-09-01T22:33:33.574Z,99.90
2018-09-01T22:36:08.228Z,99.90
2018-09-01T22:38:42.382Z,99.90
2018-09-01T22:41:13.010Z,99.90
2018-09-01T22:43:43.751Z,99.90
2018-09-01T22:46:14.431Z,99.90
2018-09-01T22:48:43.172Z,99.90
2018-09-01T22:51:13.750Z,99.90
2018-09-01T22:53:44.700Z,99.90
2018-09-01T22:56:19.823Z,99.90
2018-09-01T22:58:50.766Z,99.90
2018-09-01T23:01:23.561Z,99.90
2018-09-01T23:03:57.151Z,99.90
2018-09-01T23:06:27.056Z,99.90
2018-09-01T23:08:56.765Z,99.90
2018-09-01T23:11:25.802Z,99.90
2018-09-01T23:13:59.259Z,99.90
2018-09-01T23:16:29.206Z,99.90
2018-09-01T23:19:06.212Z,99.90
2018-09-01T23:21:53.270Z,99.90
2018-09-01T23:24:22.739Z,99.90
2018-09-01T23:26:56.391Z,99.90
2018-09-01T23:29:27.370Z,99.90
2018-09-01T23:31:58.246Z,99.90
2018-09-01T23:34:28.362Z,99.90
2018-09-01T23:36:58.899Z,99.90
2018-09-01T23:39:33.816Z,99.90
2018-09-01T23:42:15.214Z,99.90
2018-09-01T23:46:13.874Z,99.90
2018-09-01T23:48:42.865Z,99.90
2018-09-01T23:51:13.215Z,99.90
2018-09-01T23:53:42.515Z,99.90
2018-09-01T23:56:12.120Z,99.90
2018-09-01T23:58:42.094Z,99.90
